sensor_id;sensor_type;location;lat;lon;timestamp;temperature;humidity
16437;DHT22;8328;52.206;21.006;2022-09-17T00:01:07;10.60;99.90
16437;DHT22;8328;52.206;21.006;2022-09-17T00:03:33;10.70;99.90
16437;DHT22;8328;52.206;21.006;2022-09-17T00:06:02;10.70;99.90
16437;DHT22;8328;52.206;21.006;2022-09-17T00:08:28;10.80;99.90
16437;DHT22;8328;52.206;21.006;2022-09-17T00:10:54;10.80;99.90
16437;DHT22;8328;52.206;21.006;2022-09-17T00:13:21;10.90;99.90
16437;DHT22;8328;52.206;21.006;2022-09-17T00:15:47;10.90;99.90
16437;DHT22;8328;52.206;21.006;2022-09-17T00:18:13;11.00;99.90
16437;DHT22;8328;52.206;21.006;2022-09-17T00:20:40;10.90;99.90
16437;DHT22;8328;52.206;21.006;2022-09-17T00:23:07;10.80;99.90
16437;DHT22;8328;52.206;21.006;2022-09-17T00:25:33;10.60;99.90
16437;DHT22;8328;52.206;21.006;2022-09-17T00:27:59;10.50;99.90
16437;DHT22;8328;52.206;21.006;2022-09-17T00:30:25;10.50;99.90
16437;DHT22;8328;52.206;21.006;2022-09-17T00:32:51;10.40;99.90
16437;DHT22;8328;52.206;21.006;2022-09-17T00:35:17;10.40;99.90
16437;DHT22;8328;52.206;21.006;2022-09-17T00:37:43;10.30;99.90
16437;DHT22;8328;52.206;21.006;2022-09-17T00:40:09;10.30;99.90
16437;DHT22;8328;52.206;21.006;2022-09-17T00:42:35;10.20;99.90
16437;DHT22;8328;52.206;21.006;2022-09-17T00:45:01;10.20;99.90
16437;DHT22;8328;52.206;21.006;2022-09-17T00:47:37;10.10;99.90
16437;DHT22;8328;52.206;21.006;2022-09-17T00:50:08;10.10;99.90
16437;DHT22;8328;52.206;21.006;2022-09-17T00:52:48;10.10;99.90
16437;DHT22;8328;52.206;21.006;2022-09-17T00:57:51;10.10;99.90
16437;DHT22;8328;52.206;21.006;2022-09-17T01:00:18;10.10;99.90
16437;DHT22;8328;52.206;21.006;2022-09-17T01:02:44;10.10;99.90
16437;DHT22;8328;52.206;21.006;2022-09-17T01:05:11;10.00;99.90
16437;DHT22;8328;52.206;21.006;2022-09-17T01:07:43;10.00;99.90
16437;DHT22;8328;52.206;21.006;2022-09-17T01:10:42;10.10;99.90
16437;DHT22;8328;52.206;21.006;2022-09-17T01:13:36;10.10;99.90
16437;DHT22;8328;52.206;21.006;2022-09-17T01:16:41;10.20;99.90
16437;DHT22;8328;52.206;21.006;2022-09-17T01:19:24;10.20;99.90
16437;DHT22;8328;52.206;21.006;2022-09-17T01:22:30;10.30;99.90
16437;DHT22;8328;52.206;21.006;2022-09-17T01:28:28;10.40;99.90
16437;DHT22;8328;52.206;21.006;2022-09-17T01:31:07;10.30;99.90
16437;DHT22;8328;52.206;21.006;2022-09-17T01:39:17;10.10;99.90
16437;DHT22;8328;52.206;21.006;2022-09-17T01:41:55;10.00;99.90
16437;DHT22;8328;52.206;21.006;2022-09-17T01:44:44;10.00;99.90
16437;DHT22;8328;52.206;21.006;2022-09-17T01:47:23;9.90;99.90
16437;DHT22;8328;52.206;21.006;2022-09-17T01:49:53;9.80;99.90
16437;DHT22;8328;52.206;21.006;2022-09-17T01:52:22;9.80;99.90
16437;DHT22;8328;52.206;21.006;2022-09-17T01:54:53;9.80;99.90
16437;DHT22;8328;52.206;21.006;2022-09-17T01:57:33;9.80;99.90
16437;DHT22;8328;52.206;21.006;2022-09-17T02:00:08;9.70;99.90
16437;DHT22;8328;52.206;21.006;2022-09-17T02:05:52;9.70;99.90
16437;DHT22;8328;52.206;21.006;2022-09-17T02:08:25;9.60;99.90
16437;DHT22;8328;52.206;21.006;2022-09-17T02:11:09;9.60;99.90
16437;DHT22;8328;52.206;21.006;2022-09-17T02:16:14;9.60;99.90
16437;DHT22;8328;52.206;21.006;2022-09-17T02:22:20;9.50;99.90
16437;DHT22;8328;52.206;21.006;2022-09-17T02:30:24;9.40;99.90
16437;DHT22;8328;52.206;21.006;2022-09-17T02:32:50;9.40;99.90
16437;DHT22;8328;52.206;21.006;2022-09-17T02:35:17;9.30;99.90
16437;DHT22;8328;52.206;21.006;2022-09-17T02:37:44;9.40;99.90
16437;DHT22;8328;52.206;21.006;2022-09-17T02:40:12;9.30;99.90
16437;DHT22;8328;52.206;21.006;2022-09-17T02:45:52;9.30;99.90
16437;DHT22;8328;52.206;21.006;2022-09-17T02:52:15;9.30;99.90
16437;DHT22;8328;52.206;21.006;2022-09-17T02:57:32;9.30;99.90
16437;DHT22;8328;52.206;21.006;2022-09-17T03:02:58;9.20;99.90
16437;DHT22;8328;52.206;21.006;2022-09-17T03:05:26;9.30;99.90
16437;DHT22;8328;52.206;21.006;2022-09-17T03:07:54;9.20;99.90
16437;DHT22;8328;52.206;21.006;2022-09-17T03:10:21;9.20;99.90
16437;DHT22;8328;52.206;21.006;2022-09-17T03:12:47;9.20;99.90
16437;DHT22;8328;52.206;21.006;2022-09-17T03:15:13;9.20;99.90
16437;DHT22;8328;52.206;21.006;2022-09-17T03:17:39;9.10;99.90
16437;DHT22;8328;52.206;21.006;2022-09-17T03:20:05;9.10;99.90
16437;DHT22;8328;52.206;21.006;2022-09-17T03:22:31;9.10;99.90
16437;DHT22;8328;52.206;21.006;2022-09-17T03:24:57;9.10;99.90
16437;DHT22;8328;52.206;21.006;2022-09-17T03:27:23;9.10;99.90
16437;DHT22;8328;52.206;21.006;2022-09-17T03:29:49;9.00;99.90
16437;DHT22;8328;52.206;21.006;2022-09-17T03:32:15;9.00;99.90
16437;DHT22;8328;52.206;21.006;2022-09-17T03:34:40;9.00;99.90
16437;DHT22;8328;52.206;21.006;2022-09-17T03:37:06;8.90;99.90
16437;DHT22;8328;52.206;21.006;2022-09-17T03:39:32;8.90;99.90
16437;DHT22;8328;52.206;21.006;2022-09-17T03:41:58;8.90;99.90
16437;DHT22;8328;52.206;21.006;2022-09-17T03:44:23;8.90;99.90
16437;DHT22;8328;52.206;21.006;2022-09-17T03:46:50;8.90;99.90
16437;DHT22;8328;52.206;21.006;2022-09-17T03:49:15;8.90;99.90
16437;DHT22;8328;52.206;21.006;2022-09-17T03:51:41;8.90;99.90
16437;DHT22;8328;52.206;21.006;2022-09-17T03:54:07;8.80;99.90
16437;DHT22;8328;52.206;21.006;2022-09-17T03:56:33;8.80;99.90
16437;DHT22;8328;52.206;21.006;2022-09-17T03:59:02;8.90;99.90
16437;DHT22;8328;52.206;21.006;2022-09-17T04:01:28;8.90;99.90
16437;DHT22;8328;52.206;21.006;2022-09-17T04:03:54;8.90;99.90
16437;DHT22;8328;52.206;21.006;2022-09-17T04:06:20;8.90;99.90
16437;DHT22;8328;52.206;21.006;2022-09-17T04:08:46;8.90;99.90
16437;DHT22;8328;52.206;21.006;2022-09-17T04:11:12;8.90;99.90
16437;DHT22;8328;52.206;21.006;2022-09-17T04:13:37;8.90;99.90
16437;DHT22;8328;52.206;21.006;2022-09-17T04:16:03;8.90;99.90
16437;DHT22;8328;52.206;21.006;2022-09-17T04:18:29;8.90;99.90
16437;DHT22;8328;52.206;21.006;2022-09-17T04:20:56;8.80;99.90
16437;DHT22;8328;52.206;21.006;2022-09-17T04:23:21;8.80;99.90
16437;DHT22;8328;52.206;21.006;2022-09-17T04:25:48;8.80;99.90
16437;DHT22;8328;52.206;21.006;2022-09-17T04:28:14;8.90;99.90
16437;DHT22;8328;52.206;21.006;2022-09-17T04:30:40;8.90;99.90
16437;DHT22;8328;52.206;21.006;2022-09-17T04:33:10;8.90;99.90
16437;DHT22;8328;52.206;21.006;2022-09-17T04:35:36;8.90;99.90
16437;DHT22;8328;52.206;21.006;2022-09-17T04:38:02;8.90;99.90
16437;DHT22;8328;52.206;21.006;2022-09-17T04:40:28;9.00;99.90
16437;DHT22;8328;52.206;21.006;2022-09-17T04:42:55;9.00;99.90
16437;DHT22;8328;52.206;21.006;2022-09-17T04:45:24;9.00;99.90
16437;DHT22;8328;52.206;21.006;2022-09-17T04:47:56;9.10;99.90
16437;DHT22;8328;52.206;21.006;2022-09-17T04:50:22;9.10;99.90
16437;DHT22;8328;52.206;21.006;2022-09-17T04:52:48;9.20;99.90
16437;DHT22;8328;52.206;21.006;2022-09-17T04:55:15;9.20;99.90
16437;DHT22;8328;52.206;21.006;2022-09-17T04:57:54;9.20;99.90
16437;DHT22;8328;52.206;21.006;2022-09-17T05:00:21;9.30;99.90
16437;DHT22;8328;52.206;21.006;2022-09-17T05:02:49;9.40;99.90
16437;DHT22;8328;52.206;21.006;2022-09-17T05:05:16;9.40;99.90
16437;DHT22;8328;52.206;21.006;2022-09-17T05:07:43;9.50;99.90
16437;DHT22;8328;52.206;21.006;2022-09-17T05:10:14;9.60;99.90
16437;DHT22;8328;52.206;21.006;2022-09-17T05:12:40;9.60;99.90
16437;DHT22;8328;52.206;21.006;2022-09-17T05:15:11;9.70;99.90
16437;DHT22;8328;52.206;21.006;2022-09-17T05:17:37;9.80;99.90
16437;DHT22;8328;52.206;21.006;2022-09-17T05:20:03;9.90;99.90
16437;DHT22;8328;52.206;21.006;2022-09-17T05:22:29;10.00;99.90
16437;DHT22;8328;52.206;21.006;2022-09-17T05:24:54;10.00;99.90
16437;DHT22;8328;52.206;21.006;2022-09-17T05:27:20;10.20;99.90
16437;DHT22;8328;52.206;21.006;2022-09-17T05:29:46;10.40;99.90
16437;DHT22;8328;52.206;21.006;2022-09-17T05:32:12;10.60;99.90
16437;DHT22;8328;52.206;21.006;2022-09-17T05:34:37;10.80;99.90
16437;DHT22;8328;52.206;21.006;2022-09-17T05:37:03;11.10;99.90
16437;DHT22;8328;52.206;21.006;2022-09-17T05:39:29;11.40;99.90
16437;DHT22;8328;52.206;21.006;2022-09-17T05:41:55;11.70;99.90
16437;DHT22;8328;52.206;21.006;2022-09-17T05:44:20;12.00;99.90
16437;DHT22;8328;52.206;21.006;2022-09-17T05:46:46;12.00;99.90
16437;DHT22;8328;52.206;21.006;2022-09-17T05:49:13;12.00;99.90
16437;DHT22;8328;52.206;21.006;2022-09-17T05:51:42;11.80;99.90
16437;DHT22;8328;52.206;21.006;2022-09-17T05:54:08;11.80;99.90
16437;DHT22;8328;52.206;21.006;2022-09-17T05:56:34;11.90;99.90
16437;DHT22;8328;52.206;21.006;2022-09-17T05:59:00;12.10;99.90
16437;DHT22;8328;52.206;21.006;2022-09-17T06:01:26;12.40;99.90
16437;DHT22;8328;52.206;21.006;2022-09-17T06:03:52;12.60;99.90
16437;DHT22;8328;52.206;21.006;2022-09-17T06:06:20;12.80;99.90
16437;DHT22;8328;52.206;21.006;2022-09-17T06:09:05;13.00;99.90
16437;DHT22;8328;52.206;21.006;2022-09-17T06:11:31;13.20;99.90
16437;DHT22;8328;52.206;21.006;2022-09-17T06:13:56;13.50;99.90
16437;DHT22;8328;52.206;21.006;2022-09-17T06:16:23;13.90;99.90
16437;DHT22;8328;52.206;21.006;2022-09-17T06:18:49;14.00;99.90
16437;DHT22;8328;52.206;21.006;2022-09-17T06:21:18;14.00;99.90
16437;DHT22;8328;52.206;21.006;2022-09-17T06:23:46;13.90;99.90
16437;DHT22;8328;52.206;21.006;2022-09-17T06:26:12;13.90;99.90
16437;DHT22;8328;52.206;21.006;2022-09-17T06:28:38;14.00;99.90
16437;DHT22;8328;52.206;21.006;2022-09-17T06:31:06;14.00;99.90
16437;DHT22;8328;52.206;21.006;2022-09-17T06:33:32;14.10;99.90
16437;DHT22;8328;52.206;21.006;2022-09-17T06:36:03;14.10;99.90
16437;DHT22;8328;52.206;21.006;2022-09-17T06:38:31;14.20;99.90
16437;DHT22;8328;52.206;21.006;2022-09-17T06:40:57;14.40;99.90
16437;DHT22;8328;52.206;21.006;2022-09-17T06:43:24;14.50;99.90
16437;DHT22;8328;52.206;21.006;2022-09-17T06:45:54;14.50;99.90
16437;DHT22;8328;52.206;21.006;2022-09-17T06:48:21;14.40;99.90
16437;DHT22;8328;52.206;21.006;2022-09-17T06:50:47;14.30;99.90
16437;DHT22;8328;52.206;21.006;2022-09-17T06:53:14;14.20;99.90
16437;DHT22;8328;52.206;21.006;2022-09-17T06:55:40;14.30;99.90
16437;DHT22;8328;52.206;21.006;2022-09-17T06:58:06;14.40;99.90
16437;DHT22;8328;52.206;21.006;2022-09-17T07:00:31;14.40;99.90
16437;DHT22;8328;52.206;21.006;2022-09-17T07:02:58;14.70;99.90
16437;DHT22;8328;52.206;21.006;2022-09-17T07:05:26;15.40;99.90
16437;DHT22;8328;52.206;21.006;2022-09-17T07:07:52;15.80;99.90
16437;DHT22;8328;52.206;21.006;2022-09-17T07:10:19;16.10;99.90
16437;DHT22;8328;52.206;21.006;2022-09-17T07:12:45;16.30;99.90
16437;DHT22;8328;52.206;21.006;2022-09-17T07:15:11;16.40;99.90
16437;DHT22;8328;52.206;21.006;2022-09-17T07:17:37;16.40;99.90
16437;DHT22;8328;52.206;21.006;2022-09-17T07:20:05;16.10;99.90
16437;DHT22;8328;52.206;21.006;2022-09-17T07:22:32;15.90;99.90
16437;DHT22;8328;52.206;21.006;2022-09-17T07:24:58;15.80;99.90
16437;DHT22;8328;52.206;21.006;2022-09-17T07:27:29;15.60;99.90
16437;DHT22;8328;52.206;21.006;2022-09-17T07:29:56;15.40;99.90
16437;DHT22;8328;52.206;21.006;2022-09-17T07:32:22;15.20;99.90
16437;DHT22;8328;52.206;21.006;2022-09-17T07:34:48;14.80;99.90
16437;DHT22;8328;52.206;21.006;2022-09-17T07:37:18;14.60;99.90
16437;DHT22;8328;52.206;21.006;2022-09-17T07:39:45;14.40;99.90
16437;DHT22;8328;52.206;21.006;2022-09-17T07:42:11;14.20;99.90
16437;DHT22;8328;52.206;21.006;2022-09-17T07:44:37;14.10;99.90
16437;DHT22;8328;52.206;21.006;2022-09-17T07:47:03;14.10;99.90
16437;DHT22;8328;52.206;21.006;2022-09-17T07:49:30;14.20;99.90
16437;DHT22;8328;52.206;21.006;2022-09-17T07:51:56;14.10;99.90
16437;DHT22;8328;52.206;21.006;2022-09-17T07:54:22;14.00;99.90
16437;DHT22;8328;52.206;21.006;2022-09-17T07:56:48;14.00;99.90
16437;DHT22;8328;52.206;21.006;2022-09-17T07:59:14;14.10;99.90
16437;DHT22;8328;52.206;21.006;2022-09-17T08:01:40;13.80;99.90
16437;DHT22;8328;52.206;21.006;2022-09-17T08:04:05;13.60;99.90
16437;DHT22;8328;52.206;21.006;2022-09-17T08:06:36;13.60;99.90
16437;DHT22;8328;52.206;21.006;2022-09-17T08:09:02;13.80;99.90
16437;DHT22;8328;52.206;21.006;2022-09-17T08:11:30;14.00;99.90
16437;DHT22;8328;52.206;21.006;2022-09-17T08:13:56;13.90;99.90
16437;DHT22;8328;52.206;21.006;2022-09-17T08:16:22;13.70;99.90
16437;DHT22;8328;52.206;21.006;2022-09-17T08:18:51;13.70;99.90
16437;DHT22;8328;52.206;21.006;2022-09-17T08:21:19;13.60;99.90
16437;DHT22;8328;52.206;21.006;2022-09-17T08:23:45;13.50;99.90
16437;DHT22;8328;52.206;21.006;2022-09-17T08:26:15;13.40;99.90
16437;DHT22;8328;52.206;21.006;2022-09-17T08:28:44;13.30;99.90
16437;DHT22;8328;52.206;21.006;2022-09-17T08:31:11;13.40;99.90
16437;DHT22;8328;52.206;21.006;2022-09-17T08:33:38;13.40;99.90
16437;DHT22;8328;52.206;21.006;2022-09-17T08:36:06;13.50;99.90
16437;DHT22;8328;52.206;21.006;2022-09-17T08:38:33;13.60;99.90
16437;DHT22;8328;52.206;21.006;2022-09-17T08:46:52;14.40;99.90
16437;DHT22;8328;52.206;21.006;2022-09-17T08:49:36;15.00;99.90
16437;DHT22;8328;52.206;21.006;2022-09-17T08:52:17;15.30;99.90
16437;DHT22;8328;52.206;21.006;2022-09-17T09:00:12;15.30;99.90
16437;DHT22;8328;52.206;21.006;2022-09-17T09:08:32;16.90;99.90
16437;DHT22;8328;52.206;21.006;2022-09-17T09:11:31;17.00;99.90
16437;DHT22;8328;52.206;21.006;2022-09-17T09:14:16;17.40;99.90
16437;DHT22;8328;52.206;21.006;2022-09-17T09:16:43;17.60;99.90
16437;DHT22;8328;52.206;21.006;2022-09-17T09:19:31;17.30;99.90
16437;DHT22;8328;52.206;21.006;2022-09-17T09:22:21;16.90;99.90
16437;DHT22;8328;52.206;21.006;2022-09-17T09:30:19;16.20;99.90
16437;DHT22;8328;52.206;21.006;2022-09-17T09:32:57;16.20;99.90
16437;DHT22;8328;52.206;21.006;2022-09-17T09:35:29;16.10;99.90
16437;DHT22;8328;52.206;21.006;2022-09-17T09:38:10;16.60;99.90
16437;DHT22;8328;52.206;21.006;2022-09-17T09:40:57;17.00;99.90
16437;DHT22;8328;52.206;21.006;2022-09-17T09:43:47;17.70;99.90
16437;DHT22;8328;52.206;21.006;2022-09-17T09:57:30;16.30;99.90
16437;DHT22;8328;52.206;21.006;2022-09-17T10:00:36;15.70;99.90
16437;DHT22;8328;52.206;21.006;2022-09-17T10:03:34;15.30;99.90
16437;DHT22;8328;52.206;21.006;2022-09-17T10:06:06;15.60;99.90
16437;DHT22;8328;52.206;21.006;2022-09-17T10:11:23;15.70;99.90
16437;DHT22;8328;52.206;21.006;2022-09-17T10:13:49;15.40;99.90
16437;DHT22;8328;52.206;21.006;2022-09-17T10:16:27;15.20;99.90
16437;DHT22;8328;52.206;21.006;2022-09-17T10:19:19;15.10;99.90
16437;DHT22;8328;52.206;21.006;2022-09-17T10:22:16;15.20;99.90
16437;DHT22;8328;52.206;21.006;2022-09-17T10:24:38;15.00;99.90
16437;DHT22;8328;52.206;21.006;2022-09-17T10:27:15;14.60;99.90
16437;DHT22;8328;52.206;21.006;2022-09-17T10:29:43;14.30;99.90
16437;DHT22;8328;52.206;21.006;2022-09-17T10:32:18;14.10;99.90
16437;DHT22;8328;52.206;21.006;2022-09-17T10:34:59;13.80;99.90
16437;DHT22;8328;52.206;21.006;2022-09-17T10:37:43;13.60;99.90
16437;DHT22;8328;52.206;21.006;2022-09-17T10:43:14;13.30;99.90
16437;DHT22;8328;52.206;21.006;2022-09-17T10:45:39;13.40;99.90
16437;DHT22;8328;52.206;21.006;2022-09-17T10:48:17;13.70;99.90
16437;DHT22;8328;52.206;21.006;2022-09-17T10:50:50;14.00;99.90
16437;DHT22;8328;52.206;21.006;2022-09-17T10:53:17;14.50;99.90
16437;DHT22;8328;52.206;21.006;2022-09-17T10:58:45;15.20;99.90
16437;DHT22;8328;52.206;21.006;2022-09-17T11:06:44;14.70;99.90
16437;DHT22;8328;52.206;21.006;2022-09-17T11:09:26;14.50;99.90
16437;DHT22;8328;52.206;21.006;2022-09-17T11:11:59;14.40;99.90
16437;DHT22;8328;52.206;21.006;2022-09-17T11:20:03;16.10;99.90
16437;DHT22;8328;52.206;21.006;2022-09-17T11:25:27;16.90;99.90
16437;DHT22;8328;52.206;21.006;2022-09-17T11:28:12;16.50;99.90
16437;DHT22;8328;52.206;21.006;2022-09-17T11:34:02;15.50;99.90
16437;DHT22;8328;52.206;21.006;2022-09-17T11:36:43;15.30;99.90
16437;DHT22;8328;52.206;21.006;2022-09-17T11:39:16;15.40;99.90
16437;DHT22;8328;52.206;21.006;2022-09-17T11:41:46;15.50;99.90
16437;DHT22;8328;52.206;21.006;2022-09-17T11:46:43;16.10;99.90
16437;DHT22;8328;52.206;21.006;2022-09-17T11:54:41;17.30;99.90
16437;DHT22;8328;52.206;21.006;2022-09-17T11:57:23;17.30;99.90
16437;DHT22;8328;52.206;21.006;2022-09-17T12:05:23;19.60;99.90
16437;DHT22;8328;52.206;21.006;2022-09-17T12:10:57;21.50;99.90
16437;DHT22;8328;52.206;21.006;2022-09-17T12:13:39;20.60;99.90
16437;DHT22;8328;52.206;21.006;2022-09-17T12:21:53;18.60;99.90
16437;DHT22;8328;52.206;21.006;2022-09-17T12:24:26;18.10;99.90
16437;DHT22;8328;52.206;21.006;2022-09-17T12:30:02;17.10;99.90
16437;DHT22;8328;52.206;21.006;2022-09-17T12:35:37;16.50;99.90
16437;DHT22;8328;52.206;21.006;2022-09-17T12:43:50;16.60;99.90
16437;DHT22;8328;52.206;21.006;2022-09-17T13:04:01;16.70;99.90
16437;DHT22;8328;52.206;21.006;2022-09-17T13:07:01;16.20;99.90
16437;DHT22;8328;52.206;21.006;2022-09-17T13:09:46;15.90;99.90
16437;DHT22;8328;52.206;21.006;2022-09-17T13:12:22;15.50;99.90
16437;DHT22;8328;52.206;21.006;2022-09-17T13:17:32;15.30;99.90
16437;DHT22;8328;52.206;21.006;2022-09-17T13:20:28;15.20;99.90
16437;DHT22;8328;52.206;21.006;2022-09-17T13:22:56;15.00;99.90
16437;DHT22;8328;52.206;21.006;2022-09-17T13:25:23;15.00;99.90
16437;DHT22;8328;52.206;21.006;2022-09-17T13:28:06;15.00;99.90
16437;DHT22;8328;52.206;21.006;2022-09-17T13:31:00;15.00;99.90
16437;DHT22;8328;52.206;21.006;2022-09-17T13:39:08;15.20;99.90
16437;DHT22;8328;52.206;21.006;2022-09-17T13:41:38;15.10;99.90
16437;DHT22;8328;52.206;21.006;2022-09-17T13:44:06;15.10;99.90
16437;DHT22;8328;52.206;21.006;2022-09-17T13:46:34;15.10;99.90
16437;DHT22;8328;52.206;21.006;2022-09-17T13:49:12;15.20;99.90
16437;DHT22;8328;52.206;21.006;2022-09-17T13:54:07;15.00;99.90
16437;DHT22;8328;52.206;21.006;2022-09-17T13:56:37;14.90;99.90
16437;DHT22;8328;52.206;21.006;2022-09-17T14:02:01;14.90;99.90
16437;DHT22;8328;52.206;21.006;2022-09-17T14:09:54;15.20;99.90
16437;DHT22;8328;52.206;21.006;2022-09-17T14:17:58;15.30;99.90
16437;DHT22;8328;52.206;21.006;2022-09-17T14:20:24;15.40;99.90
16437;DHT22;8328;52.206;21.006;2022-09-17T14:23:01;15.60;99.90
16437;DHT22;8328;52.206;21.006;2022-09-17T14:25:41;15.70;99.90
16437;DHT22;8328;52.206;21.006;2022-09-17T14:28:37;15.90;99.90
16437;DHT22;8328;52.206;21.006;2022-09-17T14:31:17;16.00;99.90
16437;DHT22;8328;52.206;21.006;2022-09-17T14:33:47;16.20;99.90
16437;DHT22;8328;52.206;21.006;2022-09-17T14:36:18;16.30;99.90
16437;DHT22;8328;52.206;21.006;2022-09-17T14:38:51;16.20;99.90
16437;DHT22;8328;52.206;21.006;2022-09-17T14:41:22;16.30;99.90
16437;DHT22;8328;52.206;21.006;2022-09-17T14:44:12;16.20;99.90
16437;DHT22;8328;52.206;21.006;2022-09-17T14:47:02;16.10;99.90
16437;DHT22;8328;52.206;21.006;2022-09-17T14:49:38;15.80;99.90
16437;DHT22;8328;52.206;21.006;2022-09-17T14:52:28;15.50;99.90
16437;DHT22;8328;52.206;21.006;2022-09-17T14:55:19;15.70;99.90
16437;DHT22;8328;52.206;21.006;2022-09-17T14:57:54;15.70;99.90
16437;DHT22;8328;52.206;21.006;2022-09-17T15:00:32;15.60;99.90
16437;DHT22;8328;52.206;21.006;2022-09-17T15:02:58;15.70;99.90
16437;DHT22;8328;52.206;21.006;2022-09-17T15:05:35;16.10;99.90
16437;DHT22;8328;52.206;21.006;2022-09-17T15:11:03;16.30;99.90
16437;DHT22;8328;52.206;21.006;2022-09-17T15:13:33;16.10;99.90
16437;DHT22;8328;52.206;21.006;2022-09-17T15:18:36;16.00;99.90
16437;DHT22;8328;52.206;21.006;2022-09-17T15:21:13;16.00;99.90
16437;DHT22;8328;52.206;21.006;2022-09-17T15:23:42;16.00;99.90
16437;DHT22;8328;52.206;21.006;2022-09-17T15:26:08;15.80;99.90
16437;DHT22;8328;52.206;21.006;2022-09-17T15:28:39;15.70;99.90
16437;DHT22;8328;52.206;21.006;2022-09-17T15:31:20;15.50;99.90
16437;DHT22;8328;52.206;21.006;2022-09-17T15:33:46;15.20;99.90
16437;DHT22;8328;52.206;21.006;2022-09-17T15:36:26;15.10;99.90
16437;DHT22;8328;52.206;21.006;2022-09-17T15:38:52;15.00;99.90
16437;DHT22;8328;52.206;21.006;2022-09-17T15:41:33;14.90;99.90
16437;DHT22;8328;52.206;21.006;2022-09-17T15:44:16;14.90;99.90
16437;DHT22;8328;52.206;21.006;2022-09-17T15:46:44;14.90;99.90
16437;DHT22;8328;52.206;21.006;2022-09-17T15:49:31;14.90;99.90
16437;DHT22;8328;52.206;21.006;2022-09-17T15:52:34;14.80;99.90
16437;DHT22;8328;52.206;21.006;2022-09-17T15:55:00;14.70;99.90
16437;DHT22;8328;52.206;21.006;2022-09-17T15:57:30;14.60;99.90
16437;DHT22;8328;52.206;21.006;2022-09-17T16:00:06;14.50;99.90
16437;DHT22;8328;52.206;21.006;2022-09-17T16:02:37;14.50;99.90
16437;DHT22;8328;52.206;21.006;2022-09-17T16:07:41;14.50;99.90
16437;DHT22;8328;52.206;21.006;2022-09-17T16:10:09;14.40;99.90
16437;DHT22;8328;52.206;21.006;2022-09-17T16:12:35;14.30;99.90
16437;DHT22;8328;52.206;21.006;2022-09-17T16:15:02;14.10;99.90
16437;DHT22;8328;52.206;21.006;2022-09-17T16:17:41;13.90;99.90
16437;DHT22;8328;52.206;21.006;2022-09-17T16:22:37;13.70;99.90
16437;DHT22;8328;52.206;21.006;2022-09-17T16:25:03;13.50;99.90
16437;DHT22;8328;52.206;21.006;2022-09-17T16:27:33;13.50;99.90
16437;DHT22;8328;52.206;21.006;2022-09-17T16:30:05;13.40;99.90
16437;DHT22;8328;52.206;21.006;2022-09-17T16:32:34;13.30;99.90
16437;DHT22;8328;52.206;21.006;2022-09-17T16:34:59;13.20;99.90
16437;DHT22;8328;52.206;21.006;2022-09-17T16:37:25;13.10;99.90
16437;DHT22;8328;52.206;21.006;2022-09-17T16:39:51;13.00;99.90
16437;DHT22;8328;52.206;21.006;2022-09-17T16:42:18;13.00;99.90
16437;DHT22;8328;52.206;21.006;2022-09-17T16:44:43;12.90;99.90
16437;DHT22;8328;52.206;21.006;2022-09-17T16:47:09;12.90;99.90
16437;DHT22;8328;52.206;21.006;2022-09-17T16:49:35;12.80;99.90
16437;DHT22;8328;52.206;21.006;2022-09-17T16:52:01;12.70;99.90
16437;DHT22;8328;52.206;21.006;2022-09-17T16:54:27;12.60;99.90
16437;DHT22;8328;52.206;21.006;2022-09-17T16:56:53;12.70;99.90
16437;DHT22;8328;52.206;21.006;2022-09-17T16:59:20;12.70;99.90
16437;DHT22;8328;52.206;21.006;2022-09-17T17:01:45;12.70;99.90
16437;DHT22;8328;52.206;21.006;2022-09-17T17:04:13;12.60;99.90
16437;DHT22;8328;52.206;21.006;2022-09-17T17:06:39;12.60;99.90
16437;DHT22;8328;52.206;21.006;2022-09-17T17:09:05;12.50;99.90
16437;DHT22;8328;52.206;21.006;2022-09-17T17:11:30;12.30;99.90
16437;DHT22;8328;52.206;21.006;2022-09-17T17:13:56;12.20;99.90
16437;DHT22;8328;52.206;21.006;2022-09-17T17:16:22;12.10;99.90
16437;DHT22;8328;52.206;21.006;2022-09-17T17:18:50;12.10;99.90
16437;DHT22;8328;52.206;21.006;2022-09-17T17:21:18;12.00;99.90
16437;DHT22;8328;52.206;21.006;2022-09-17T17:23:44;12.00;99.90
16437;DHT22;8328;52.206;21.006;2022-09-17T17:26:13;11.90;99.90
16437;DHT22;8328;52.206;21.006;2022-09-17T17:28:39;11.90;99.90
16437;DHT22;8328;52.206;21.006;2022-09-17T17:31:05;11.80;99.90
16437;DHT22;8328;52.206;21.006;2022-09-17T17:33:31;11.70;99.90
16437;DHT22;8328;52.206;21.006;2022-09-17T17:36:04;11.70;99.90
16437;DHT22;8328;52.206;21.006;2022-09-17T17:38:31;11.60;99.90
16437;DHT22;8328;52.206;21.006;2022-09-17T17:41:03;11.60;99.90
16437;DHT22;8328;52.206;21.006;2022-09-17T17:43:30;11.60;99.90
16437;DHT22;8328;52.206;21.006;2022-09-17T17:45:56;11.50;99.90
16437;DHT22;8328;52.206;21.006;2022-09-17T17:48:21;11.50;99.90
16437;DHT22;8328;52.206;21.006;2022-09-17T17:50:47;11.50;99.90
16437;DHT22;8328;52.206;21.006;2022-09-17T17:53:13;11.50;99.90
16437;DHT22;8328;52.206;21.006;2022-09-17T17:55:38;11.40;99.90
16437;DHT22;8328;52.206;21.006;2022-09-17T17:58:04;11.40;99.90
16437;DHT22;8328;52.206;21.006;2022-09-17T18:00:30;11.40;99.90
16437;DHT22;8328;52.206;21.006;2022-09-17T18:02:56;11.40;99.90
16437;DHT22;8328;52.206;21.006;2022-09-17T18:05:22;11.40;99.90
16437;DHT22;8328;52.206;21.006;2022-09-17T18:07:48;11.30;99.90
16437;DHT22;8328;52.206;21.006;2022-09-17T18:10:15;11.40;99.90
16437;DHT22;8328;52.206;21.006;2022-09-17T18:12:41;11.30;99.90
16437;DHT22;8328;52.206;21.006;2022-09-17T18:15:14;11.30;99.90
16437;DHT22;8328;52.206;21.006;2022-09-17T18:17:41;11.30;99.90
16437;DHT22;8328;52.206;21.006;2022-09-17T18:20:07;11.30;99.90
16437;DHT22;8328;52.206;21.006;2022-09-17T18:22:34;11.30;99.90
16437;DHT22;8328;52.206;21.006;2022-09-17T18:25:00;11.50;99.90
16437;DHT22;8328;52.206;21.006;2022-09-17T18:27:25;11.60;99.90
16437;DHT22;8328;52.206;21.006;2022-09-17T18:29:52;11.60;99.90
16437;DHT22;8328;52.206;21.006;2022-09-17T18:32:18;11.50;99.90
16437;DHT22;8328;52.206;21.006;2022-09-17T18:34:43;11.40;99.90
16437;DHT22;8328;52.206;21.006;2022-09-17T18:37:09;11.40;99.90
16437;DHT22;8328;52.206;21.006;2022-09-17T18:39:35;11.40;99.90
16437;DHT22;8328;52.206;21.006;2022-09-17T18:42:01;11.40;99.90
16437;DHT22;8328;52.206;21.006;2022-09-17T18:44:27;11.30;99.90
16437;DHT22;8328;52.206;21.006;2022-09-17T18:46:52;11.30;99.90
16437;DHT22;8328;52.206;21.006;2022-09-17T18:49:18;11.30;99.90
16437;DHT22;8328;52.206;21.006;2022-09-17T18:51:44;11.30;99.90
16437;DHT22;8328;52.206;21.006;2022-09-17T18:54:10;11.30;99.90
16437;DHT22;8328;52.206;21.006;2022-09-17T18:56:37;11.20;99.90
16437;DHT22;8328;52.206;21.006;2022-09-17T18:59:03;11.20;99.90
16437;DHT22;8328;52.206;21.006;2022-09-17T19:01:30;11.20;99.90